createdAt,value
2022-08-23T00:00:10.997Z,77.00
2022-08-23T00:02:40.452Z,79.80
2022-08-23T00:05:10.125Z,79.00
2022-08-23T00:07:43.854Z,81.30
2022-08-23T00:10:13.778Z,82.00
2022-08-23T00:12:41.554Z,81.40
2022-08-23T00:15:10.974Z,80.80
2022-08-23T00:17:39.548Z,82.20
2022-08-23T00:35:27.818Z,85.80
2022-08-23T00:38:06.000Z,87.00
2022-08-23T00:40:48.924Z,86.40
2022-08-23T00:43:36.124Z,87.50
2022-08-23T00:46:28.798Z,87.90
2022-08-23T00:48:56.943Z,88.40
2022-08-23T00:51:52.170Z,89.30
2022-08-23T00:54:23.120Z,88.70
2022-08-23T00:56:50.558Z,88.10
2022-08-23T00:59:17.650Z,88.70
2022-08-23T01:01:44.633Z,89.40
2022-08-23T01:04:13.063Z,88.80
2022-08-23T01:07:28.154Z,88.90
2022-08-23T01:09:59.287Z,88.70
2022-08-23T01:12:37.568Z,88.40
2022-08-23T01:15:16.183Z,87.80
2022-08-23T01:17:47.813Z,87.10
2022-08-23T01:20:18.624Z,87.20
2022-08-23T01:22:45.327Z,87.80
2022-08-23T01:25:17.246Z,87.50
2022-08-23T01:27:45.979Z,87.80
2022-08-23T01:30:15.728Z,87.60
2022-08-23T01:32:51.574Z,87.60
2022-08-23T01:37:52.267Z,89.10
2022-08-23T01:40:19.174Z,88.60
2022-08-23T01:42:47.219Z,88.40
2022-08-23T01:45:14.661Z,89.10
2022-08-23T01:47:41.671Z,89.90
2022-08-23T01:50:10.230Z,90.10
2022-08-23T01:52:38.058Z,90.40
2022-08-23T01:55:13.660Z,90.50
2022-08-23T01:57:42.472Z,90.50
2022-08-23T02:00:13.527Z,90.50
2022-08-23T02:02:41.312Z,90.40
2022-08-23T02:05:09.601Z,90.10
2022-08-23T02:07:36.531Z,89.90
2022-08-23T02:10:03.687Z,89.60
2022-08-23T02:12:30.540Z,89.70
2022-08-23T02:14:57.268Z,90.00
2022-08-23T02:17:24.066Z,90.30
2022-08-23T02:19:51.218Z,90.40
2022-08-23T02:22:18.008Z,90.40
2022-08-23T02:24:46.757Z,90.30
2022-08-23T02:27:15.943Z,90.40
2022-08-23T02:29:45.052Z,90.50
2022-08-23T02:32:15.394Z,90.70
2022-08-23T02:34:43.145Z,90.80
2022-08-23T02:37:12.417Z,90.80
2022-08-23T02:39:40.880Z,90.90
2022-08-23T02:42:08.218Z,90.80
2022-08-23T02:44:39.766Z,91.00
2022-08-23T02:47:11.866Z,91.00
2022-08-23T02:49:38.970Z,91.00
2022-08-23T02:52:07.057Z,90.90
2022-08-23T02:54:35.440Z,91.10
2022-08-23T02:57:02.649Z,91.00
2022-08-23T02:59:29.532Z,91.10
2022-08-23T03:01:56.343Z,91.20
2022-08-23T03:04:23.510Z,91.20
2022-08-23T03:06:50.256Z,91.10
2022-08-23T03:09:17.168Z,91.10
2022-08-23T03:11:46.547Z,91.20
2022-08-23T03:14:14.016Z,91.20
2022-08-23T03:16:41.344Z,91.20
2022-08-23T03:19:08.798Z,91.20
2022-08-23T03:21:35.598Z,91.10
2022-08-23T03:24:05.740Z,91.10
2022-08-23T03:26:35.660Z,91.10
2022-08-23T03:29:02.828Z,91.10
2022-08-23T03:31:29.608Z,91.20
2022-08-23T03:33:58.183Z,91.20
2022-08-23T03:36:27.869Z,91.20
2022-08-23T03:38:55.696Z,91.30
2022-08-23T03:41:22.523Z,91.20
2022-08-23T03:43:50.579Z,91.20
2022-08-23T03:46:23.715Z,91.20
2022-08-23T03:48:52.916Z,91.30
2022-08-23T03:51:20.959Z,91.20
2022-08-23T03:53:49.417Z,91.20
2022-08-23T03:56:32.500Z,91.20
2022-08-23T03:59:02.717Z,91.20
2022-08-23T04:01:29.603Z,91.10
2022-08-23T04:04:00.164Z,91.10
2022-08-23T04:06:28.315Z,91.20
2022-08-23T04:08:55.257Z,91.30
2022-08-23T04:11:23.684Z,91.40
2022-08-23T04:13:50.480Z,91.40
2022-08-23T04:16:18.964Z,91.40
2022-08-23T04:18:46.608Z,91.40
2022-08-23T04:21:19.288Z,91.20
2022-08-23T04:23:46.080Z,91.30
2022-08-23T04:26:13.003Z,91.30
2022-08-23T04:28:40.612Z,91.30
2022-08-23T04:31:07.931Z,91.30
2022-08-23T04:33:35.643Z,91.30
2022-08-23T04:36:07.381Z,91.30
2022-08-23T04:38:34.215Z,91.30
2022-08-23T04:41:19.833Z,91.20
2022-08-23T04:43:46.896Z,91.30
2022-08-23T04:46:15.596Z,91.40
2022-08-23T04:48:43.452Z,91.40
2022-08-23T04:51:10.692Z,91.40
2022-08-23T04:53:37.935Z,91.50
2022-08-23T04:56:06.116Z,91.50
2022-08-23T04:58:33.713Z,91.50
2022-08-23T05:01:02.387Z,91.50
2022-08-23T05:03:29.889Z,91.50
2022-08-23T05:05:58.093Z,91.50
2022-08-23T05:08:25.948Z,91.60
2022-08-23T05:10:52.791Z,91.60
2022-08-23T05:13:19.827Z,91.70
2022-08-23T05:15:46.759Z,91.70
2022-08-23T05:18:13.539Z,91.70
2022-08-23T05:20:40.385Z,91.70
2022-08-23T05:23:07.266Z,91.70
2022-08-23T05:25:53.390Z,91.80
2022-08-23T05:28:26.549Z,91.80
2022-08-23T05:31:14.757Z,91.80
2022-08-23T05:33:42.616Z,91.80
2022-08-23T05:36:12.175Z,91.80
2022-08-23T05:38:39.974Z,91.80
2022-08-23T05:41:07.301Z,91.80
2022-08-23T05:43:34.985Z,91.50
2022-08-23T05:46:06.549Z,91.50
2022-08-23T05:48:41.193Z,91.60
2022-08-23T05:51:26.604Z,91.60
2022-08-23T05:53:54.841Z,91.60
2022-08-23T05:56:27.885Z,91.70
2022-08-23T05:59:00.048Z,91.70
2022-08-23T06:01:29.369Z,91.70
2022-08-23T06:03:58.638Z,91.70
2022-08-23T06:06:37.058Z,91.80
2022-08-23T06:09:06.503Z,91.80
2022-08-23T06:11:33.674Z,91.70
2022-08-23T06:14:02.923Z,91.70
2022-08-23T06:16:32.984Z,91.70
2022-08-23T06:19:02.454Z,91.70
2022-08-23T06:21:30.392Z,91.80
2022-08-23T06:23:57.248Z,91.70
2022-08-23T06:26:31.392Z,91.70
2022-08-23T06:29:00.676Z,91.60
2022-08-23T06:31:47.318Z,91.50
2022-08-23T06:34:22.848Z,91.40
2022-08-23T06:36:55.887Z,90.90
2022-08-23T06:39:25.124Z,89.50
2022-08-23T06:41:52.534Z,87.40
2022-08-23T06:44:20.128Z,75.80
2022-08-23T06:46:49.285Z,66.20
2022-08-23T06:49:16.819Z,61.30
2022-08-23T06:51:48.787Z,60.10
2022-08-23T06:54:17.203Z,59.10
2022-08-23T06:56:45.980Z,51.60
2022-08-23T06:59:12.900Z,52.90
2022-08-23T07:01:59.822Z,21.20
2022-08-23T07:04:33.844Z,14.20
2022-08-23T07:07:01.923Z,4.60
2022-08-23T07:09:30.297Z,1.00
2022-08-23T07:11:57.841Z,2.00
2022-08-23T07:14:25.624Z,1.00
2022-08-23T07:16:59.502Z,1.00
2022-08-23T07:19:29.509Z,1.00
2022-08-23T07:22:00.463Z,1.00
2022-08-23T07:24:32.959Z,1.00
2022-08-23T07:27:01.417Z,1.00
2022-08-23T07:29:30.051Z,1.00
2022-08-23T07:31:57.979Z,1.00
2022-08-23T07:34:26.089Z,1.00
2022-08-23T07:36:53.782Z,1.00
2022-08-23T07:39:22.643Z,1.00
2022-08-23T07:41:49.888Z,1.00
2022-08-23T07:44:18.204Z,1.00
2022-08-23T07:46:46.665Z,1.00
2022-08-23T07:49:14.589Z,1.00
2022-08-23T07:51:47.060Z,1.00
2022-08-23T07:54:14.522Z,1.00
2022-08-23T07:56:41.643Z,1.00
2022-08-23T07:59:09.805Z,1.00
2022-08-23T08:01:37.434Z,1.00
2022-08-23T08:04:05.933Z,1.00
2022-08-23T08:06:35.045Z,1.00
2022-08-23T08:09:03.728Z,1.00
2022-08-23T08:11:35.704Z,1.00
2022-08-23T08:14:09.042Z,1.00
2022-08-23T08:16:39.404Z,1.00
2022-08-23T08:19:09.523Z,1.00
2022-08-23T08:21:41.823Z,1.00
2022-08-23T08:24:10.558Z,1.00
2022-08-23T08:26:37.830Z,1.00
2022-08-23T08:29:05.695Z,1.00
2022-08-23T08:31:38.013Z,1.00
2022-08-23T08:34:05.895Z,1.00
2022-08-23T08:36:37.164Z,1.00
2022-08-23T08:39:16.226Z,1.00
2022-08-23T08:42:04.637Z,1.00
2022-08-23T08:44:53.702Z,1.00
2022-08-23T08:47:37.367Z,1.00
2022-08-23T08:50:14.692Z,1.00
2022-08-23T08:52:49.395Z,1.00
2022-08-23T08:55:40.284Z,1.00
2022-08-23T08:58:17.189Z,1.00
2022-08-23T09:00:44.085Z,1.00
2022-08-23T09:03:14.628Z,1.00
2022-08-23T09:05:57.597Z,1.00
2022-08-23T09:08:53.102Z,1.00
2022-08-23T09:11:28.693Z,1.00
2022-08-23T09:14:15.611Z,1.00
2022-08-23T09:17:05.302Z,1.00
2022-08-23T09:19:39.829Z,1.00
2022-08-23T09:22:21.009Z,1.00
2022-08-23T09:24:47.800Z,1.00
2022-08-23T09:27:14.708Z,1.00
2022-08-23T09:29:59.013Z,1.00
2022-08-23T09:32:28.112Z,1.00
2022-08-23T09:35:31.949Z,1.00
2022-08-23T09:38:15.137Z,1.00
2022-08-23T09:40:48.184Z,1.00
2022-08-23T09:43:14.905Z,1.00
2022-08-23T09:46:02.222Z,1.00
2022-08-23T09:48:42.729Z,1.00
2022-08-23T09:51:34.976Z,1.00
2022-08-23T09:54:31.017Z,1.00
2022-08-23T09:57:02.519Z,1.00
2022-08-23T09:59:51.882Z,1.00
2022-08-23T10:02:21.459Z,1.00
2022-08-23T10:04:59.999Z,1.00
2022-08-23T10:07:42.790Z,1.00
2022-08-23T10:10:28.255Z,1.00
2022-08-23T10:12:56.959Z,1.00
2022-08-23T10:15:49.446Z,1.00
2022-08-23T10:18:53.463Z,1.00
2022-08-23T10:21:47.220Z,1.00
2022-08-23T10:24:24.094Z,1.00
2022-08-23T10:27:44.173Z,1.00
2022-08-23T10:30:20.834Z,1.00
2022-08-23T10:33:26.789Z,1.00
2022-08-23T10:36:21.540Z,1.00
2022-08-23T10:39:01.482Z,1.00
2022-08-23T10:41:38.599Z,1.00
2022-08-23T10:44:14.469Z,1.00
2022-08-23T10:46:53.074Z,1.00
2022-08-23T10:49:20.078Z,1.00
2022-08-23T10:51:51.904Z,1.00
2022-08-23T10:54:35.850Z,1.00
2022-08-23T10:57:04.221Z,1.00
2022-08-23T10:59:32.532Z,1.00
2022-08-23T11:02:18.017Z,1.00
2022-08-23T11:05:15.304Z,1.00
2022-08-23T11:07:42.810Z,1.00
2022-08-23T11:10:26.655Z,1.00
2022-08-23T11:13:06.546Z,1.00
2022-08-23T11:15:45.363Z,1.00
2022-08-23T11:18:38.094Z,1.00
2022-08-23T11:21:33.664Z,1.00
2022-08-23T11:24:00.973Z,1.00
2022-08-23T11:26:34.126Z,1.00
2022-08-23T11:29:06.897Z,1.00
2022-08-23T11:32:10.432Z,1.00
2022-08-23T11:35:05.664Z,1.00
2022-08-23T11:37:59.927Z,1.00
2022-08-23T11:40:41.343Z,1.00
2022-08-23T11:43:24.634Z,1.00
2022-08-23T11:45:51.678Z,1.00
2022-08-23T11:48:43.855Z,1.00
2022-08-23T11:51:32.504Z,1.00
2022-08-23T11:54:32.236Z,1.00
2022-08-23T11:57:11.006Z,1.00
2022-08-23T11:59:43.795Z,1.00
2022-08-23T12:02:38.386Z,1.00
2022-08-23T12:05:34.616Z,1.00
2022-08-23T12:08:01.586Z,1.00
2022-08-23T12:10:43.883Z,1.00
2022-08-23T12:13:19.837Z,1.00
2022-08-23T12:16:16.291Z,1.00
2022-08-23T12:18:52.956Z,1.00
2022-08-23T12:21:33.051Z,1.00
2022-08-23T12:24:15.613Z,1.00
2022-08-23T12:26:42.358Z,1.00
2022-08-23T12:29:24.461Z,1.00
2022-08-23T12:32:01.394Z,1.00
2022-08-23T12:34:40.289Z,1.00
2022-08-23T12:37:21.288Z,1.00
2022-08-23T12:39:55.234Z,1.00
2022-08-23T12:42:37.948Z,1.00
2022-08-23T12:45:23.563Z,1.00
2022-08-23T12:48:02.478Z,1.00
2022-08-23T12:50:39.061Z,1.00
2022-08-23T12:53:12.384Z,1.00
2022-08-23T12:55:49.915Z,1.00
2022-08-23T12:58:28.714Z,1.00
2022-08-23T13:01:03.119Z,1.00
2022-08-23T13:03:43.754Z,1.00
2022-08-23T13:06:16.390Z,1.00
2022-08-23T13:08:52.666Z,1.00
2022-08-23T13:11:22.285Z,1.00
2022-08-23T13:13:49.552Z,1.00
2022-08-23T13:16:44.732Z,1.00
2022-08-23T13:19:28.099Z,1.00
2022-08-23T13:22:22.406Z,1.00
2022-08-23T13:25:28.062Z,1.00
2022-08-23T13:27:55.555Z,1.00
2022-08-23T13:30:25.870Z,1.00
2022-08-23T13:33:14.495Z,1.00
2022-08-23T13:36:05.566Z,1.00
2022-08-23T13:38:40.869Z,1.00
2022-08-23T13:41:29.417Z,1.00
2022-08-23T13:43:56.386Z,1.00
2022-08-23T13:46:26.861Z,1.00
2022-08-23T13:49:09.862Z,1.00
2022-08-23T13:51:42.437Z,1.00
2022-08-23T13:54:15.749Z,1.00
2022-08-23T13:56:51.536Z,1.00
2022-08-23T13:59:31.357Z,1.00
2022-08-23T14:02:14.173Z,1.00
2022-08-23T14:04:41.863Z,1.00
2022-08-23T14:07:09.890Z,1.00
2022-08-23T14:09:38.542Z,1.00
2022-08-23T14:12:22.485Z,1.00
2022-08-23T14:14:49.805Z,1.00
2022-08-23T14:17:20.175Z,1.00
2022-08-23T14:20:32.765Z,1.00
2022-08-23T14:22:35.985Z,1.00
2022-08-23T14:25:02.960Z,1.00
2022-08-23T14:27:29.766Z,1.00
2022-08-23T14:29:56.627Z,1.00
2022-08-23T14:32:23.403Z,1.00
2022-08-23T14:34:50.413Z,1.00
2022-08-23T14:40:05.090Z,1.00
2022-08-23T14:42:32.221Z,1.00
2022-08-23T14:44:59.138Z,1.00
2022-08-23T14:47:26.800Z,1.00
2022-08-23T14:49:54.158Z,1.00
2022-08-23T14:52:21.645Z,1.00
2022-08-23T14:54:49.593Z,1.00
2022-08-23T14:57:16.608Z,1.00
2022-08-23T14:59:43.390Z,1.00
2022-08-23T15:02:13.394Z,1.00
2022-08-23T15:04:41.680Z,1.00
2022-08-23T15:07:23.735Z,1.00
2022-08-23T15:09:54.712Z,1.00
2022-08-23T15:15:13.189Z,1.00
2022-08-23T15:17:52.548Z,1.00
2022-08-23T15:20:21.581Z,1.00
2022-08-23T15:22:55.100Z,1.00
2022-08-23T15:25:25.325Z,1.00
2022-08-23T15:27:52.593Z,1.00
2022-08-23T15:30:19.540Z,1.00
2022-08-23T15:32:52.773Z,1.00
2022-08-23T15:35:24.344Z,1.00
2022-08-23T15:37:52.417Z,1.00
2022-08-23T15:40:19.378Z,1.00
2022-08-23T15:42:46.395Z,1.00
2022-08-23T15:45:13.235Z,1.00
2022-08-23T15:47:51.540Z,1.00
2022-08-23T15:50:20.050Z,1.00
2022-08-23T15:52:46.858Z,1.00
2022-08-23T15:55:15.652Z,1.00
2022-08-23T15:57:46.605Z,1.00
2022-08-23T16:00:15.214Z,1.00
2022-08-23T16:03:06.554Z,1.00
2022-08-23T16:05:29.089Z,1.00
2022-08-23T16:07:57.905Z,1.00
2022-08-23T16:10:28.192Z,1.00
2022-08-23T16:12:55.601Z,1.00
2022-08-23T16:15:22.416Z,1.00
2022-08-23T16:17:49.411Z,1.00
2022-08-23T16:20:17.191Z,1.00
2022-08-23T16:22:44.159Z,1.00
2022-08-23T16:25:11.078Z,1.00
2022-08-23T16:27:38.317Z,1.00
2022-08-23T16:30:07.031Z,1.00
2022-08-23T16:32:33.871Z,1.00
2022-08-23T16:35:00.672Z,1.00
2022-08-23T16:37:27.485Z,1.00
2022-08-23T16:39:54.415Z,1.00
2022-08-23T16:42:21.297Z,1.00
2022-08-23T16:44:48.639Z,1.00
2022-08-23T16:47:17.043Z,1.00
2022-08-23T16:49:43.874Z,1.00
2022-08-23T16:52:11.538Z,1.00
2022-08-23T16:54:38.955Z,1.00
2022-08-23T16:57:06.857Z,1.00
2022-08-23T16:59:40.199Z,1.00
2022-08-23T17:02:10.751Z,1.00
2022-08-23T17:04:38.129Z,1.00
2022-08-23T17:07:05.101Z,1.00
2022-08-23T17:09:31.946Z,1.00
2022-08-23T17:11:58.832Z,1.00
2022-08-23T17:14:26.428Z,1.00
2022-08-23T17:16:53.567Z,1.00
2022-08-23T17:19:20.381Z,1.00
2022-08-23T17:21:47.261Z,1.00
2022-08-23T17:24:14.263Z,1.00
2022-08-23T17:26:41.050Z,1.00
2022-08-23T17:29:09.343Z,1.00
2022-08-23T17:31:37.871Z,1.00
2022-08-23T17:34:06.766Z,1.00
2022-08-23T17:36:39.092Z,1.00
2022-08-23T17:39:11.434Z,1.00
2022-08-23T17:41:43.167Z,1.00
2022-08-23T17:44:11.907Z,1.00
2022-08-23T17:46:40.855Z,1.00
2022-08-23T17:49:08.391Z,1.00
2022-08-23T17:51:36.791Z,1.00
2022-08-23T17:54:04.938Z,1.00
2022-08-23T17:56:32.135Z,1.00
2022-08-23T17:58:59.108Z,1.00
2022-08-23T18:01:27.216Z,1.00
2022-08-23T18:03:54.153Z,1.00
2022-08-23T18:06:21.477Z,1.00
2022-08-23T18:08:48.369Z,1.00
2022-08-23T18:11:15.933Z,1.00
2022-08-23T18:13:42.862Z,1.00
2022-08-23T18:16:09.839Z,1.00
2022-08-23T18:18:37.195Z,1.00
2022-08-23T18:21:06.368Z,1.00
2022-08-23T18:23:33.467Z,1.00
2022-08-23T18:26:30.000Z,1.00
2022-08-23T18:28:57.510Z,1.00
2022-08-23T18:31:24.777Z,1.00
2022-08-23T18:33:51.597Z,1.00
2022-08-23T18:36:18.448Z,1.00
2022-08-23T18:38:45.236Z,1.00
2022-08-23T18:41:13.591Z,1.00
2022-08-23T18:43:41.559Z,1.00
2022-08-23T18:46:08.990Z,1.00
2022-08-23T18:48:36.694Z,1.00
2022-08-23T18:51:04.274Z,1.00
2022-08-23T18:53:31.965Z,1.00
2022-08-23T18:55:58.819Z,1.00
2022-08-23T18:58:27.080Z,1.00
2022-08-23T19:00:55.770Z,1.00
2022-08-23T19:03:23.188Z,1.00
2022-08-23T19:05:49.979Z,1.00
2022-08-23T19:08:17.170Z,1.00
2022-08-23T19:10:44.330Z,1.00
2022-08-23T19:13:12.048Z,1.00
2022-08-23T19:15:40.251Z,1.00
2022-08-23T19:18:07.498Z,1.00
2022-08-23T19:20:34.386Z,1.00
2022-08-23T19:23:01.399Z,1.00
2022-08-23T19:25:31.692Z,1.00
2022-08-23T19:27:58.583Z,1.00
2022-08-23T19:30:28.304Z,1.00
2022-08-23T19:32:56.550Z,1.00
2022-08-23T19:35:23.522Z,1.00
2022-08-23T19:37:50.556Z,1.00
2022-08-23T19:40:17.953Z,1.00
2022-08-23T19:42:44.893Z,1.00
2022-08-23T19:45:12.129Z,1.00
2022-08-23T19:47:40.293Z,1.00
2022-08-23T19:50:09.651Z,1.00
2022-08-23T19:52:37.236Z,1.00
2022-08-23T19:55:05.709Z,1.00
2022-08-23T19:57:35.176Z,1.00
2022-08-23T20:00:07.364Z,1.00
2022-08-23T20:02:34.143Z,1.00
2022-08-23T20:05:00.905Z,1.00
2022-08-23T20:07:27.762Z,1.00
2022-08-23T20:09:57.348Z,1.00
2022-08-23T20:12:25.886Z,1.00
2022-08-23T20:14:53.894Z,1.00
2022-08-23T20:17:22.137Z,1.00
2022-08-23T20:19:49.575Z,1.00
2022-08-23T20:22:34.833Z,1.00
2022-08-23T20:25:01.808Z,1.00
2022-08-23T20:27:30.752Z,1.00
2022-08-23T20:30:01.578Z,1.00
2022-08-23T20:32:29.816Z,1.00
2022-08-23T20:34:56.741Z,1.00
2022-08-23T20:37:23.538Z,1.00
2022-08-23T20:39:50.353Z,1.00
2022-08-23T20:42:17.155Z,1.00
2022-08-23T20:44:44.331Z,1.00
2022-08-23T20:47:12.762Z,1.00
2022-08-23T20:49:39.688Z,1.00
2022-08-23T20:52:06.733Z,1.00
2022-08-23T20:54:33.817Z,1.00
2022-08-23T20:57:00.589Z,1.00
2022-08-23T20:59:27.607Z,1.00
2022-08-23T21:01:54.531Z,1.00
2022-08-23T21:04:21.752Z,1.00
2022-08-23T21:06:56.859Z,1.00
2022-08-23T21:09:29.417Z,1.00
2022-08-23T21:11:56.624Z,1.00
2022-08-23T21:14:23.806Z,1.00
2022-08-23T21:16:50.688Z,1.00
2022-08-23T21:19:18.836Z,1.00
2022-08-23T21:21:45.957Z,1.00
2022-08-23T21:24:13.149Z,1.00
2022-08-23T21:26:41.021Z,1.00
2022-08-23T21:29:09.511Z,1.00
2022-08-23T21:31:36.733Z,1.00
2022-08-23T21:34:03.917Z,1.00
2022-08-23T21:36:30.744Z,1.00
2022-08-23T21:38:57.486Z,1.00
2022-08-23T21:41:37.296Z,1.00
2022-08-23T21:44:08.972Z,1.50
2022-08-23T21:46:35.949Z,2.70
2022-08-23T21:49:03.727Z,2.80
2022-08-23T21:51:30.609Z,2.50
2022-08-23T21:53:58.488Z,2.10
2022-08-23T21:56:26.168Z,5.60
2022-08-23T21:58:56.911Z,3.70
2022-08-23T22:01:23.715Z,2.90
2022-08-23T22:03:54.846Z,4.30
2022-08-23T22:06:23.762Z,3.70
2022-08-23T22:08:50.562Z,3.50
2022-08-23T22:11:17.333Z,4.80
2022-08-23T22:13:44.687Z,4.50
2022-08-23T22:16:12.098Z,5.50
2022-08-23T22:18:39.117Z,7.00
2022-08-23T22:21:07.014Z,9.10
2022-08-23T22:23:36.428Z,11.00
2022-08-23T22:26:05.962Z,15.30
2022-08-23T22:28:33.839Z,13.50
2022-08-23T22:31:01.968Z,10.30
2022-08-23T22:33:29.817Z,10.70
2022-08-23T22:36:08.508Z,10.50
2022-08-23T22:38:35.393Z,12.20
2022-08-23T22:41:02.130Z,12.60
2022-08-23T22:43:28.893Z,12.10
2022-08-23T22:45:58.440Z,13.30
2022-08-23T22:48:29.414Z,13.50
2022-08-23T22:51:07.992Z,17.60
2022-08-23T22:53:37.731Z,18.90
2022-08-23T22:56:05.614Z,20.50
2022-08-23T22:58:33.067Z,20.60
2022-08-23T23:01:00.191Z,25.10
2022-08-23T23:03:34.668Z,26.30
2022-08-23T23:06:01.705Z,28.00
2022-08-23T23:08:28.545Z,28.60
2022-08-23T23:11:03.558Z,28.30
2022-08-23T23:13:31.593Z,29.80
2022-08-23T23:16:02.222Z,28.10
2022-08-23T23:18:29.033Z,29.60
2022-08-23T23:21:02.005Z,31.00
2022-08-23T23:23:30.046Z,28.50
2022-08-23T23:25:58.021Z,30.70
2022-08-23T23:28:25.522Z,31.60
2022-08-23T23:30:54.216Z,31.90
2022-08-23T23:33:21.776Z,46.40
2022-08-23T23:35:49.224Z,55.20
2022-08-23T23:38:16.673Z,52.80
2022-08-23T23:40:44.227Z,52.50
2022-08-23T23:43:13.299Z,56.70
2022-08-23T23:45:40.934Z,60.20
2022-08-23T23:48:08.657Z,63.40
2022-08-23T23:50:36.949Z,65.90
2022-08-23T23:53:08.630Z,65.00
2022-08-23T23:55:35.452Z,65.20
2022-08-23T23:58:02.331Z,64.20
